Time;durP1;ratioP1;P1;durP2;ratioP2;P2;SDS_P1;SDS_P2;PMS_P1;PMS_P2;Temp;Humidity;BMP_temperature;BMP_pressure;BME280_temperature;BME280_humidity;BME280_pressure;Samples;Min_cycle;Max_cycle;Signal;HPM_P1;HPM_P2
2023/10/21 00:00:27;;;;;;;21.85;10.48;;;563.30;1996.80;;;;;;5075464;28;20367;-74
2023/10/21 00:02:53;;;;;;;28.98;10.88;;;563.30;1996.80;;;;;;5057254;28;20070;-75
2023/10/21 00:05:19;;;;;;;37.13;15.50;;;563.30;1996.80;;;;;;5075335;28;20477;-74
2023/10/21 00:07:44;;;;;;;32.65;16.33;;;563.30;1996.80;;;;;;5075421;28;20150;-75
2023/10/21 00:10:10;;;;;;;29.25;15.50;;;563.40;1996.80;;;;;;5075063;28;20096;-74
2023/10/21 00:12:36;;;;;;;31.15;12.95;;;563.50;1996.80;;;;;;5075097;28;20016;-75
2023/10/21 00:15:09;;;;;;;25.27;13.68;;;563.50;1996.80;;;;;;5075177;28;20028;-75
2023/10/21 00:17:35;;;;;;;27.63;11.88;;;563.60;1996.80;;;;;;5074881;28;20024;-75
2023/10/21 00:20:03;;;;;;;28.83;14.60;;;563.60;1996.80;;;;;;5075180;28;20028;-75
2023/10/21 00:22:29;;;;;;;25.85;13.52;;;563.60;1996.80;;;;;;5074822;28;20024;-74
2023/10/21 00:24:55;;;;;;;34.35;16.40;;;563.60;1996.80;;;;;;5074922;28;20039;-74
2023/10/21 00:27:21;;;;;;;44.58;20.27;;;563.60;1996.80;;;;;;5074909;28;20032;-75
2023/10/21 00:29:46;;;;;;;35.15;19.35;;;563.50;1996.80;;;;;;5074870;28;20532;-74
2023/10/21 00:32:12;;;;;;;39.08;19.92;;;563.50;1996.80;;;;;;5074858;28;20151;-74
2023/10/21 00:34:38;;;;;;;37.30;20.02;;;563.40;2022.40;;;;;;5056849;28;20024;-75
2023/10/21 00:37:05;;;;;;;30.20;16.08;;;563.30;2022.40;;;;;;5056396;28;20033;-75
2023/10/21 00:39:34;;;;;;;23.00;11.55;;;563.20;2022.40;;;;;;5074684;28;20016;-75
2023/10/21 00:42:04;;;;;;;21.30;8.25;;;538.50;2022.40;;;;;;5074523;28;20094;-74
2023/10/21 00:44:31;;;;;;;16.92;7.35;;;538.50;2022.40;;;;;;5074754;28;20096;-75
2023/10/21 00:46:59;;;;;;;16.55;7.63;;;538.40;2022.40;;;;;;5056665;28;20024;-74
2023/10/21 00:49:26;;;;;;;16.55;6.93;;;538.40;2022.40;;;;;;5056474;28;20031;-75
2023/10/21 00:51:52;;;;;;;18.45;7.68;;;538.40;2022.40;;;;;;5056086;28;20581;-75
2023/10/21 00:54:19;;;;;;;19.67;7.28;;;538.40;2022.40;;;;;;5074395;28;20028;-75
2023/10/21 00:56:44;;;;;;;21.58;8.27;;;538.30;2022.40;;;;;;5074456;28;20066;-74
2023/10/21 00:59:14;;;;;;;14.38;7.35;;;538.30;2022.40;;;;;;5071727;28;20025;-74
2023/10/21 01:01:40;;;;;;;18.30;8.63;;;538.10;2048.00;;;;;;5094324;28;20028;-75
2023/10/21 01:04:08;;;;;;;16.25;7.18;;;538.10;2048.00;;;;;;5093783;28;20040;-75
2023/10/21 01:06:34;;;;;;;18.80;8.52;;;538.10;2048.00;;;;;;5089568;28;20024;-75
2023/10/21 01:08:59;;;;;;;27.30;13.38;;;538.00;2048.00;;;;;;5092914;28;20377;-76
2023/10/21 01:11:25;;;;;;;37.78;20.27;;;538.00;2048.00;;;;;;5094372;28;20020;-74
2023/10/21 01:13:51;;;;;;;43.67;23.48;;;538.00;2073.60;;;;;;5094208;28;20031;-74
2023/10/21 01:16:17;;;;;;;36.47;20.63;;;537.90;2073.60;;;;;;5075922;28;20020;-75
2023/10/21 01:18:43;;;;;;;49.20;25.05;;;537.90;2073.60;;;;;;5093995;28;20028;-75
2023/10/21 01:21:10;;;;;;;64.68;28.60;;;537.90;2073.60;;;;;;5093900;28;20028;-74
2023/10/21 01:23:36;;;;;;;52.15;31.02;;;537.80;2073.60;;;;;;5093913;28;20039;-74
2023/10/21 01:26:03;;;;;;;58.60;29.80;;;537.80;2073.60;;;;;;5093550;28;20023;-74
2023/10/21 01:28:29;;;;;;;57.35;30.27;;;537.80;2073.60;;;;;;5094121;28;20107;-74
2023/10/21 01:30:55;;;;;;;59.40;34.20;;;537.80;2073.60;;;;;;5092220;28;20060;-75
2023/10/21 01:33:21;;;;;;;55.67;32.13;;;537.80;2073.60;;;;;;5094013;28;20103;-74
2023/10/21 01:35:46;;;;;;;55.70;29.42;;;537.80;2073.60;;;;;;5093777;28;20055;-74
2023/10/21 01:38:13;;;;;;;42.97;25.60;;;537.80;2073.60;;;;;;5093770;28;20059;-74
2023/10/21 01:40:38;;;;;;;40.88;22.20;;;537.80;2073.60;;;;;;5093576;28;20016;-74
2023/10/21 01:43:04;;;;;;;37.55;17.40;;;537.80;2048.00;;;;;;5093619;28;20047;-74
2023/10/21 01:45:30;;;;;;;27.15;11.82;;;537.90;2048.00;;;;;;5093347;28;20016;-74
2023/10/21 01:47:56;;;;;;;26.05;8.10;;;538.00;2022.40;;;;;;5093606;28;20104;-74
2023/10/21 01:50:22;;;;;;;17.38;5.90;;;538.20;1971.20;;;;;;5078172;28;20055;-75
2023/10/21 01:52:48;;;;;;;23.92;5.70;;;538.40;1945.60;;;;;;5093614;28;20040;-74
2023/10/21 01:55:15;;;;;;;13.90;5.18;;;563.20;1945.60;;;;;;5092377;28;20506;-75
2023/10/21 01:57:41;;;;;;;19.20;5.13;;;563.30;1971.20;;;;;;5083897;28;20028;-75
2023/10/21 02:00:10;;;;;;;19.60;5.60;;;563.40;1945.60;;;;;;5093221;28;20061;-75
2023/10/21 02:02:36;;;;;;;19.02;5.45;;;563.40;1945.60;;;;;;5093199;28;20024;-74
2023/10/21 02:05:04;;;;;;;13.23;4.85;;;563.40;1945.60;;;;;;5093307;28;20024;-74
2023/10/21 02:07:37;;;;;;;14.45;5.28;;;563.40;1945.60;;;;;;5093510;28;20497;-75
2023/10/21 02:10:03;;;;;;;14.05;4.85;;;563.40;1920.00;;;;;;5093106;28;20039;-74
2023/10/21 02:12:30;;;;;;;16.30;5.15;;;563.50;1920.00;;;;;;5093358;28;20077;-75
2023/10/21 02:14:55;;;;;;;13.50;4.65;;;563.50;1920.00;;;;;;5092997;28;20103;-74
2023/10/21 02:17:21;;;;;;;13.75;4.78;;;563.50;1920.00;;;;;;5093287;28;20489;-75
2023/10/21 02:19:47;;;;;;;16.15;4.75;;;563.60;1920.00;;;;;;5092955;28;20028;-75
2023/10/21 02:22:13;;;;;;;15.57;5.13;;;563.50;1920.00;;;;;;5093094;28;20051;-74
2023/10/21 02:24:38;;;;;;;16.83;6.22;;;563.50;1920.00;;;;;;5093012;28;20028;-75
2023/10/21 02:27:05;;;;;;;18.08;7.65;;;563.60;1920.00;;;;;;5091460;28;20474;-75
2023/10/21 02:29:31;;;;;;;21.83;6.72;;;563.60;1920.00;;;;;;5092058;28;20024;-74
2023/10/21 02:31:57;;;;;;;17.75;6.50;;;563.60;1945.60;;;;;;5088587;28;20085;-75
2023/10/21 02:34:23;;;;;;;21.02;6.47;;;563.60;1945.60;;;;;;5092443;28;20465;-75
2023/10/21 02:36:49;;;;;;;14.75;5.13;;;563.50;1945.60;;;;;;5092321;28;20073;-75
2023/10/21 02:39:17;;;;;;;11.30;4.82;;;563.50;1945.60;;;;;;5091896;28;20024;-75
2023/10/21 02:41:43;;;;;;;19.95;6.05;;;563.50;1945.60;;;;;;5092447;28;20325;-74
2023/10/21 02:44:08;;;;;;;15.85;5.47;;;563.60;1945.60;;;;;;5092007;28;20046;-74
2023/10/21 02:46:34;;;;;;;17.98;5.47;;;563.50;1945.60;;;;;;5092506;28;20039;-74
2023/10/21 02:49:00;;;;;;;14.32;5.65;;;563.50;1945.60;;;;;;5092528;28;20389;-74
2023/10/21 02:51:25;;;;;;;16.40;6.43;;;563.50;1945.60;;;;;;5092344;28;20103;-74
2023/10/21 02:53:51;;;;;;;14.93;6.38;;;563.40;1945.60;;;;;;5090055;28;20048;-75
2023/10/21 02:56:17;;;;;;;14.75;5.20;;;563.40;1971.20;;;;;;5091942;28;20024;-74
2023/10/21 02:58:43;;;;;;;14.85;5.35;;;563.30;1971.20;;;;;;5092730;28;20027;-75
2023/10/21 03:01:14;;;;;;;13.05;4.65;;;563.40;1971.20;;;;;;5092307;28;20032;-75
2023/10/21 03:03:40;;;;;;;13.57;5.28;;;563.30;1971.20;;;;;;5091681;28;20063;-75
2023/10/21 03:06:06;;;;;;;12.80;4.75;;;563.30;1971.20;;;;;;5092063;28;20089;-74
2023/10/21 03:08:31;;;;;;;15.82;4.97;;;563.30;1971.20;;;;;;5085575;28;20107;-75
2023/10/21 03:10:57;;;;;;;13.43;4.97;;;563.30;1996.80;;;;;;5090823;28;20095;-74
2023/10/21 03:13:23;;;;;;;19.67;4.97;;;563.30;1996.80;;;;;;5085978;28;20021;-74
2023/10/21 03:15:49;;;;;;;12.88;5.43;;;563.30;1971.20;;;;;;5089735;28;20027;-74
2023/10/21 03:18:15;;;;;;;14.73;5.35;;;563.30;1971.20;;;;;;5087783;28;20036;-75
2023/10/21 03:20:41;;;;;;;14.57;5.13;;;563.30;1971.20;;;;;;5081446;28;20492;-74
2023/10/21 03:23:07;;;;;;;14.10;4.85;;;563.40;1971.20;;;;;;5092331;28;20040;-74
2023/10/21 03:25:33;;;;;;;13.98;5.95;;;563.40;1971.20;;;;;;5091864;28;20469;-74
2023/10/21 03:27:59;;;;;;;19.60;5.25;;;563.40;1971.20;;;;;;5090891;28;20102;-74
2023/10/21 03:30:25;;;;;;;18.45;4.75;;;563.40;1971.20;;;;;;5095906;28;20050;-75
2023/10/21 03:32:50;;;;;;;14.30;5.00;;;563.40;1971.20;;;;;;5095727;28;20028;-74
2023/10/21 03:35:16;;;;;;;14.95;5.00;;;563.40;1971.20;;;;;;5077273;28;20039;-74
2023/10/21 03:37:42;;;;;;;12.27;5.07;;;563.40;1971.20;;;;;;5091867;28;20032;-74
2023/10/21 03:40:10;;;;;;;17.88;4.68;;;563.50;1945.60;;;;;;5095282;28;20020;-74
2023/10/21 03:42:37;;;;;;;12.63;4.40;;;563.60;1920.00;;;;;;5095084;28;20560;-74
2023/10/21 03:45:04;;;;;;;14.65;4.63;;;563.70;1920.00;;;;;;5094664;28;20052;-74
2023/10/21 03:47:30;;;;;;;18.33;4.75;;;563.70;1920.00;;;;;;5089845;28;20032;-74
2023/10/21 03:49:57;;;;;;;18.92;5.82;;;563.70;1920.00;;;;;;5095551;28;20146;-75
2023/10/21 03:52:23;;;;;;;22.00;6.75;;;563.60;1920.00;;;;;;5094981;28;20112;-75
2023/10/21 03:54:48;;;;;;;20.23;7.15;;;563.60;1920.00;;;;;;5095326;28;20561;-75
2023/10/21 03:57:14;;;;;;;25.48;9.57;;;563.60;1920.00;;;;;;5095591;28;20035;-75
2023/10/21 03:59:40;;;;;;;23.98;9.98;;;563.60;1920.00;;;;;;5095473;28;20493;-76
2023/10/21 04:02:07;;;;;;;25.58;9.93;;;563.60;1920.00;;;;;;5095056;28;20035;-75
2023/10/21 04:04:33;;;;;;;17.35;8.98;;;563.60;1920.00;;;;;;5095013;28;20026;-76
2023/10/21 04:06:59;;;;;;;15.68;6.13;;;563.60;1894.40;;;;;;5094803;28;20095;-75
2023/10/21 04:09:26;;;;;;;15.77;5.95;;;563.70;1894.40;;;;;;5095465;28;20500;-75
2023/10/21 04:11:53;;;;;;;17.95;5.03;;;563.70;1894.40;;;;;;5094997;28;20019;-76
2023/10/21 04:14:18;;;;;;;14.45;5.18;;;563.60;1894.40;;;;;;5094887;28;20024;-76
2023/10/21 04:16:44;;;;;;;13.25;5.00;;;563.60;1920.00;;;;;;5095163;28;20050;-76
2023/10/21 04:19:11;;;;;;;18.05;5.70;;;563.40;1920.00;;;;;;5095208;28;20377;-75
2023/10/21 04:21:36;;;;;;;16.05;7.07;;;563.40;1945.60;;;;;;5095140;28;20055;-75
2023/10/21 04:24:03;;;;;;;16.13;7.82;;;563.30;1945.60;;;;;;5095078;28;20071;-75
2023/10/21 04:26:29;;;;;;;23.85;8.13;;;563.30;1945.60;;;;;;5095265;28;20027;-76
2023/10/21 04:28:55;;;;;;;22.70;8.60;;;563.30;1971.20;;;;;;5094963;28;20038;-76
2023/10/21 04:31:21;;;;;;;17.42;7.28;;;563.20;1971.20;;;;;;5095430;28;20095;-76
2023/10/21 04:33:47;;;;;;;16.95;5.72;;;538.50;1945.60;;;;;;5094892;28;20062;-74
2023/10/21 04:36:18;;;;;;;17.83;5.30;;;538.50;1945.60;;;;;;5094991;28;20044;-75
2023/10/21 04:38:44;;;;;;;15.38;6.15;;;538.50;1945.60;;;;;;5093606;28;20016;-75
2023/10/21 04:41:10;;;;;;;14.02;4.75;;;538.40;1945.60;;;;;;5094847;28;20031;-75
2023/10/21 04:43:36;;;;;;;11.55;4.85;;;538.50;1945.60;;;;;;5094782;28;20028;-75
2023/10/21 04:46:02;;;;;;;15.18;5.28;;;538.50;1945.60;;;;;;5094962;28;20012;-75
2023/10/21 04:48:28;;;;;;;19.10;6.18;;;538.40;1971.20;;;;;;5094725;28;20024;-75
2023/10/21 04:50:54;;;;;;;15.93;5.10;;;538.40;1971.20;;;;;;5094697;28;20024;-75
2023/10/21 04:53:19;;;;;;;10.27;5.13;;;538.40;1971.20;;;;;;5109493;28;20078;-75
2023/10/21 04:55:45;;;;;;;16.67;5.93;;;538.40;1971.20;;;;;;5114774;28;20012;-75
2023/10/21 04:58:11;;;;;;;21.40;7.00;;;538.40;1971.20;;;;;;5114417;28;20024;-75
2023/10/21 05:00:36;;;;;;;16.98;6.65;;;538.30;1971.20;;;;;;5114740;28;20461;-75
2023/10/21 05:03:02;;;;;;;19.50;7.93;;;538.30;1996.80;;;;;;5113704;28;20083;-75
2023/10/21 05:05:28;;;;;;;15.30;6.20;;;538.30;1971.20;;;;;;5102284;28;20023;-77
2023/10/21 05:07:54;;;;;;;15.20;7.30;;;538.40;1971.20;;;;;;5096425;28;20035;-77
2023/10/21 05:10:20;;;;;;;16.85;6.50;;;538.40;1971.20;;;;;;5114800;28;20423;-77
2023/10/21 05:12:46;;;;;;;16.70;7.18;;;538.50;1971.20;;;;;;5114195;28;20047;-76
2023/10/21 05:15:12;;;;;;;22.95;7.22;;;538.50;1971.20;;;;;;5087750;28;20066;-77
2023/10/21 05:17:38;;;;;;;18.30;7.45;;;538.50;1971.20;;;;;;5094324;28;20027;-76
2023/10/21 05:20:04;;;;;;;21.00;6.95;;;563.20;1996.80;;;;;;5096921;28;20049;-76
2023/10/21 05:22:30;;;;;;;17.10;6.50;;;563.20;1996.80;;;;;;5105485;28;20031;-76
2023/10/21 05:24:56;;;;;;;24.20;6.20;;;563.30;1996.80;;;;;;5095614;28;20473;-76
2023/10/21 05:27:22;;;;;;;18.67;5.70;;;563.40;1996.80;;;;;;5085747;28;20070;-76
2023/10/21 05:29:48;;;;;;;20.67;6.18;;;563.50;1971.20;;;;;;5088117;28;20020;-76
2023/10/21 05:32:17;;;;;;;18.80;6.03;;;563.60;1945.60;;;;;;5086400;28;20491;-75
2023/10/21 05:34:42;;;;;;;18.15;6.18;;;563.60;1945.60;;;;;;5082005;28;20024;-76
2023/10/21 05:37:08;;;;;;;11.95;4.75;;;563.70;1945.60;;;;;;5084842;28;20111;-75
2023/10/21 05:39:34;;;;;;;15.00;3.92;;;563.80;1945.60;;;;;;5083076;28;20058;-76
2023/10/21 05:41:59;;;;;;;14.15;5.78;;;563.80;1945.60;;;;;;5078860;28;20028;-77
2023/10/21 05:44:25;;;;;;;19.33;5.53;;;563.80;1945.60;;;;;;5082923;28;20078;-76
2023/10/21 05:46:51;;;;;;;16.25;4.60;;;563.80;1920.00;;;;;;5076898;28;20370;-76
2023/10/21 05:49:18;;;;;;;14.43;4.53;;;563.80;1945.60;;;;;;5072322;28;20055;-82
2023/10/21 05:51:43;;;;;;;13.07;4.72;;;563.80;1945.60;;;;;;5079195;28;20020;-77
2023/10/21 05:54:09;;;;;;;14.93;3.70;;;563.80;1920.00;;;;;;5096254;28;20032;-76
2023/10/21 05:56:35;;;;;;;11.82;4.38;;;563.80;1945.60;;;;;;5075214;28;20024;-76
2023/10/21 05:59:01;;;;;;;20.40;4.88;;;563.70;1945.60;;;;;;5092227;28;20043;-77
2023/10/21 06:01:26;;;;;;;11.38;3.85;;;563.70;1945.60;;;;;;5091779;28;20028;-76
2023/10/21 06:03:53;;;;;;;14.98;3.65;;;563.60;1945.60;;;;;;5082388;28;20115;-81
2023/10/21 06:06:19;;;;;;;13.30;4.28;;;563.60;1945.60;;;;;;5090902;28;20028;-80
2023/10/21 06:08:44;;;;;;;15.73;4.60;;;563.60;1945.60;;;;;;5075424;28;20035;-75
2023/10/21 06:11:10;;;;;;;16.33;4.47;;;563.60;1945.60;;;;;;5091731;28;20055;-76
2023/10/21 06:13:36;;;;;;;11.02;4.07;;;563.60;1945.60;;;;;;5088398;28;20382;-77
2023/10/21 06:16:02;;;;;;;13.90;4.03;;;563.70;1945.60;;;;;;5088819;28;20051;-78
2023/10/21 06:18:28;;;;;;;13.07;4.18;;;563.60;1945.60;;;;;;5092655;28;20031;-75
2023/10/21 06:20:54;;;;;;;13.85;3.78;;;563.60;1945.60;;;;;;5080708;28;20024;-79
2023/10/21 06:23:19;;;;;;;16.83;4.28;;;563.60;1920.00;;;;;;5078109;28;20047;-76
2023/10/21 06:25:45;;;;;;;20.85;5.43;;;563.70;1920.00;;;;;;5095500;28;20095;-76
2023/10/21 06:28:13;;;;;;;13.65;4.43;;;563.80;1920.00;;;;;;5077149;28;20020;-77
2023/10/21 06:30:42;;;;;;;17.65;4.43;;;563.80;1920.00;;;;;;5084623;28;20092;-79
2023/10/21 06:33:11;;;;;;;20.05;5.47;;;563.80;1920.00;;;;;;5091816;28;20028;-77
2023/10/21 06:35:38;;;;;;;19.33;4.95;;;563.80;1920.00;;;;;;5092690;28;20032;-79
2023/10/21 06:38:05;;;;;;;12.98;4.80;;;563.80;1920.00;;;;;;5088126;28;20013;-76
2023/10/21 06:40:31;;;;;;;17.67;4.93;;;563.80;1920.00;;;;;;5073735;28;20024;-75
2023/10/21 06:42:57;;;;;;;17.20;4.75;;;563.80;1945.60;;;;;;5095203;28;20036;-78
2023/10/21 06:45:23;;;;;;;15.18;5.18;;;563.80;1945.60;;;;;;5083514;28;20390;-79
2023/10/21 06:47:49;;;;;;;17.05;4.75;;;563.80;1945.60;;;;;;5083508;28;20020;-80
2023/10/21 06:50:15;;;;;;;16.08;5.13;;;563.80;1945.60;;;;;;5086381;28;20024;-79
2023/10/21 06:52:40;;;;;;;18.75;6.20;;;563.80;1945.60;;;;;;5088098;28;20055;-80
2023/10/21 06:55:08;;;;;;;21.00;6.70;;;563.80;1971.20;;;;;;5095469;28;20093;-82
2023/10/21 06:57:33;;;;;;;13.45;5.13;;;563.80;1971.20;;;;;;5101271;28;20416;-77
2023/10/21 06:59:59;;;;;;;13.00;4.72;;;563.80;1971.20;;;;;;5100716;28;20039;-75
2023/10/21 07:02:25;;;;;;;14.73;5.55;;;563.90;1971.20;;;;;;5092345;28;20031;-77
2023/10/21 07:04:51;;;;;;;15.43;5.88;;;563.90;1971.20;;;;;;5094986;28;20027;-77
2023/10/21 07:07:17;;;;;;;25.02;6.65;;;563.90;1971.20;;;;;;5095121;28;20020;-77
2023/10/21 07:09:42;;;;;;;19.45;6.43;;;563.90;1996.80;;;;;;5095821;28;20358;-77
2023/10/21 07:12:09;;;;;;;17.95;6.20;;;563.90;1996.80;;;;;;5091950;28;20028;-76
2023/10/21 07:14:35;;;;;;;20.92;8.38;;;563.90;1996.80;;;;;;5102041;28;20024;-76
2023/10/21 07:17:01;;;;;;;27.40;8.93;;;563.80;1996.80;;;;;;5099258;28;20081;-76
2023/10/21 07:19:26;;;;;;;30.55;8.95;;;563.80;2022.40;;;;;;5092310;28;20020;-77
2023/10/21 07:21:52;;;;;;;22.42;8.98;;;563.80;2022.40;;;;;;5082330;28;20506;-77
2023/10/21 07:24:18;;;;;;;20.63;7.30;;;563.80;2022.40;;;;;;5085281;28;20041;-77
2023/10/21 07:26:44;;;;;;;31.38;8.45;;;563.80;2022.40;;;;;;5091848;28;20020;-77
2023/10/21 07:29:10;;;;;;;18.85;7.25;;;563.80;2022.40;;;;;;5091697;28;20159;-74
2023/10/21 07:31:36;;;;;;;15.23;6.40;;;563.80;2022.40;;;;;;5098623;28;20016;-76
2023/10/21 07:34:02;;;;;;;20.67;7.40;;;563.80;2022.40;;;;;;5086913;28;20508;-76
2023/10/21 07:36:28;;;;;;;27.90;9.88;;;563.80;2022.40;;;;;;5094552;28;20027;-76
2023/10/21 07:38:53;;;;;;;22.17;9.65;;;563.80;2048.00;;;;;;5099526;28;20104;-77
2023/10/21 07:41:19;;;;;;;47.90;13.52;;;563.80;2048.00;;;;;;5066933;28;20474;-77
2023/10/21 07:43:45;;;;;;;28.65;8.68;;;563.80;2073.60;;;;;;5065977;28;20044;-75
2023/10/21 07:46:11;;;;;;;28.75;9.38;;;563.80;2048.00;;;;;;5113906;28;20020;-77
2023/10/21 07:48:37;;;;;;;24.73;10.77;;;563.80;2048.00;;;;;;5093274;28;20394;-74
2023/10/21 07:51:03;;;;;;;39.50;13.27;;;563.80;2048.00;;;;;;5096048;28;20032;-75
2023/10/21 07:53:29;;;;;;;26.95;12.63;;;563.70;2048.00;;;;;;5107515;28;20048;-75
2023/10/21 07:55:55;;;;;;;24.95;12.27;;;563.90;2022.40;;;;;;5101483;28;20024;-78
2023/10/21 07:58:22;;;;;;;34.70;13.68;;;563.90;2048.00;;;;;;5076318;28;20028;-76
2023/10/21 08:00:48;;;;;;;33.60;12.38;;;564.00;2048.00;;;;;;5093839;28;20482;-75
2023/10/21 08:03:14;;;;;;;30.60;12.35;;;564.00;2048.00;;;;;;5092662;28;20033;-75
2023/10/21 08:05:40;;;;;;;28.23;11.40;;;564.10;2048.00;;;;;;5087999;28;20050;-75
2023/10/21 08:08:07;;;;;;;32.05;13.73;;;564.10;2048.00;;;;;;5084998;28;20023;-77
2023/10/21 08:10:33;;;;;;;24.65;11.75;;;564.10;2048.00;;;;;;5085798;28;20039;-75
2023/10/21 08:12:59;;;;;;;24.80;10.88;;;588.80;2048.00;;;;;;5094421;28;20032;-73
2023/10/21 08:15:25;;;;;;;27.55;10.52;;;588.80;2048.00;;;;;;5091882;28;20127;-75
2023/10/21 08:17:51;;;;;;;28.50;12.57;;;588.80;2048.00;;;;;;5074936;28;20437;-75
2023/10/21 08:20:17;;;;;;;30.20;12.63;;;588.80;2048.00;;;;;;5104794;28;20437;-74
2023/10/21 08:22:43;;;;;;;32.35;12.77;;;588.80;2048.00;;;;;;5092514;28;20028;-76
2023/10/21 08:25:09;;;;;;;31.13;11.57;;;588.90;2048.00;;;;;;5097462;28;20381;-75
2023/10/21 08:27:38;;;;;;;25.73;9.38;;;589.00;2048.00;;;;;;5089342;28;20512;-76
2023/10/21 08:30:09;;;;;;;20.60;9.43;;;589.00;2022.40;;;;;;5087920;28;20054;-76
2023/10/21 08:32:35;;;;;;;22.85;9.15;;;589.00;2048.00;;;;;;5069944;28;20032;-74
2023/10/21 08:35:01;;;;;;;27.27;8.98;;;589.00;2048.00;;;;;;5096174;28;20056;-75
2023/10/21 08:37:27;;;;;;;21.17;9.50;;;589.10;2048.00;;;;;;5088221;28;20052;-75
2023/10/21 08:39:53;;;;;;;21.95;8.98;;;589.20;2048.00;;;;;;5094168;28;20028;-75
2023/10/21 08:42:23;;;;;;;21.02;7.60;;;589.20;2048.00;;;;;;5082372;28;20473;-76
2023/10/21 08:44:49;;;;;;;15.63;7.43;;;589.20;2048.00;;;;;;5093194;28;20016;-75
2023/10/21 08:47:18;;;;;;;22.88;8.48;;;589.30;2022.40;;;;;;5094714;28;20035;-75
2023/10/21 08:49:46;;;;;;;21.35;9.45;;;589.40;2048.00;;;;;;5088985;28;20020;-75
2023/10/21 08:52:13;;;;;;;32.95;8.35;;;589.40;2048.00;;;;;;5094128;28;20083;-75
2023/10/21 08:54:43;;;;;;;21.70;7.45;;;589.50;2048.00;;;;;;5092737;28;20089;-76
2023/10/21 08:57:09;;;;;;;23.95;8.30;;;589.60;2048.00;;;;;;5069447;28;20095;-75
2023/10/21 08:59:36;;;;;;;23.13;8.07;;;589.60;2048.00;;;;;;5088256;28;20489;-75
2023/10/21 09:02:02;;;;;;;16.98;7.10;;;589.70;2073.60;;;;;;5098083;28;20068;-75
2023/10/21 09:04:29;;;;;;;20.05;7.88;;;614.40;2073.60;;;;;;5109327;28;20024;-76
2023/10/21 09:06:59;;;;;;;21.42;8.07;;;614.50;2073.60;;;;;;5085250;28;20030;-77
2023/10/21 09:09:29;;;;;;;19.77;8.15;;;614.70;2048.00;;;;;;5097218;28;20548;-79
2023/10/21 09:12:13;;;;;;;22.98;8.02;;;614.80;2048.00;;;;;;5084127;28;20226;-80
2023/10/21 09:14:59;;;;;;;20.25;7.75;;;615.10;2022.40;;;;;;5082382;28;20021;-81
2023/10/21 09:17:45;;;;;;;22.10;7.53;;;615.30;2022.40;;;;;;5089244;28;20051;-77
2023/10/21 09:20:16;;;;;;;21.50;6.60;;;640.00;1996.80;;;;;;5087211;28;20099;-79
2023/10/21 09:22:45;;;;;;;15.57;6.35;;;640.10;1971.20;;;;;;5098400;28;20493;-76
2023/10/21 09:25:22;;;;;;;27.40;7.15;;;640.20;1996.80;;;;;;5097245;28;20045;-79
2023/10/21 09:27:55;;;;;;;15.23;5.97;;;640.20;1996.80;;;;;;5094413;28;20020;-78
2023/10/21 09:30:25;;;;;;;20.90;7.13;;;640.10;1996.80;;;;;;5090381;28;20020;-77
2023/10/21 09:33:00;;;;;;;21.38;6.65;;;640.10;1996.80;;;;;;5091584;28;20025;-76
2023/10/21 09:35:30;;;;;;;20.75;6.57;;;640.10;1996.80;;;;;;5097997;28;20016;-76
2023/10/21 09:37:57;;;;;;;20.65;6.60;;;640.10;1996.80;;;;;;5092667;28;20032;-75
2023/10/21 09:40:26;;;;;;;24.65;6.30;;;640.10;1971.20;;;;;;5090918;28;20016;-75
2023/10/21 09:42:53;;;;;;;19.23;5.50;;;640.00;1971.20;;;;;;5089045;28;20035;-75
2023/10/21 09:45:20;;;;;;;14.13;6.15;;;615.30;1996.80;;;;;;5095268;28;20453;-77
2023/10/21 09:47:46;;;;;;;21.55;5.60;;;615.30;1971.20;;;;;;5070676;28;20042;-77
2023/10/21 09:50:14;;;;;;;24.58;6.07;;;615.20;1971.20;;;;;;5089102;28;20095;-76
2023/10/21 09:52:44;;;;;;;19.40;6.85;;;615.20;1971.20;;;;;;5086756;28;20040;-74
2023/10/21 09:55:11;;;;;;;24.65;6.03;;;615.20;1945.60;;;;;;5080159;28;20024;-77
2023/10/21 09:57:38;;;;;;;19.90;7.22;;;615.10;1945.60;;;;;;5084074;28;20470;-77
2023/10/21 10:00:08;;;;;;;26.10;6.97;;;615.10;1920.00;;;;;;5080750;28;20104;-77
2023/10/21 10:02:37;;;;;;;30.88;8.52;;;614.90;1920.00;;;;;;5081189;28;20556;-79
2023/10/21 10:05:08;;;;;;;20.13;7.15;;;614.90;1920.00;;;;;;5097338;28;20089;-76
2023/10/21 10:07:36;;;;;;;20.40;6.32;;;614.80;1920.00;;;;;;5073160;28;20057;-83
2023/10/21 10:10:04;;;;;;;23.80;7.55;;;614.80;1868.80;;;;;;5094431;28;20027;-79
2023/10/21 10:12:52;;;;;;;20.55;6.95;;;614.70;1868.80;;;;;;5101641;28;20469;-80
2023/10/21 10:15:31;;;;;;;19.48;6.80;;;614.60;1868.80;;;;;;5073405;28;20051;-76
2023/10/21 10:17:58;;;;;;;18.05;7.85;;;614.50;1894.40;;;;;;5093978;28;20026;-78
2023/10/21 10:20:26;;;;;;;16.63;7.18;;;614.40;1920.00;;;;;;5084793;28;20084;-77
2023/10/21 10:23:11;;;;;;;26.75;7.10;;;589.70;1996.80;;;;;;5087121;28;20029;-78
2023/10/21 10:25:49;;;;;;;19.52;6.55;;;589.60;1996.80;;;;;;5080565;28;20020;-78
2023/10/21 10:28:23;;;;;;;22.00;6.63;;;589.50;2022.40;;;;;;5081222;28;20028;-78
2023/10/21 10:30:50;;;;;;;24.70;6.40;;;589.60;2048.00;;;;;;5084961;28;20020;-76
2023/10/21 10:33:28;;;;;;;33.83;6.57;;;589.50;2022.40;;;;;;5098703;28;20077;-77
2023/10/21 10:35:57;;;;;;;21.42;7.90;;;614.50;2022.40;;;;;;5099660;28;20019;-77
2023/10/21 10:38:31;;;;;;;15.90;6.32;;;614.50;1996.80;;;;;;5071983;28;20028;-77
2023/10/21 10:41:09;;;;;;;21.55;7.05;;;589.70;1996.80;;;;;;5084728;28;20020;-76
2023/10/21 10:43:41;;;;;;;20.08;7.97;;;589.60;2022.40;;;;;;5072685;28;20797;-76
2023/10/21 10:46:07;;;;;;;23.00;9.90;;;589.50;2048.00;;;;;;5096628;28;20086;-77
2023/10/21 10:48:34;;;;;;;25.60;9.45;;;589.40;2073.60;;;;;;5090897;28;20016;-78
2023/10/21 10:51:06;;;;;;;26.00;10.27;;;589.50;2073.60;;;;;;5098153;28;20032;-77
2023/10/21 10:53:35;;;;;;;31.17;11.10;;;589.60;2048.00;;;;;;5090325;28;20112;-77
2023/10/21 10:56:01;;;;;;;26.08;10.05;;;614.40;2048.00;;;;;;5096353;28;20030;-76
2023/10/21 10:58:26;;;;;;;31.05;11.90;;;614.60;2048.00;;;;;;5088756;28;20019;-77
2023/10/21 11:00:52;;;;;;;27.63;10.10;;;614.60;2022.40;;;;;;5096538;28;20350;-77
2023/10/21 11:03:23;;;;;;;27.02;11.10;;;614.60;1996.80;;;;;;5091970;28;20059;-77
2023/10/21 11:05:50;;;;;;;25.20;8.82;;;614.60;2022.40;;;;;;5071995;28;20020;-77
2023/10/21 11:08:17;;;;;;;22.02;7.90;;;614.80;1996.80;;;;;;5070586;28;20028;-77
2023/10/21 11:10:43;;;;;;;20.35;6.35;;;614.50;1971.20;;;;;;5083216;28;20025;-77
2023/10/21 11:13:09;;;;;;;23.73;6.68;;;614.80;1971.20;;;;;;5089399;28;20162;-77
2023/10/21 11:15:44;;;;;;;22.52;8.38;;;614.80;1971.20;;;;;;5091695;28;20056;-78
2023/10/21 11:18:15;;;;;;;24.95;8.05;;;614.80;1945.60;;;;;;5083840;28;20535;-77
2023/10/21 11:20:51;;;;;;;26.75;8.88;;;614.80;1945.60;;;;;;5086298;28;20473;-77
2023/10/21 11:23:23;;;;;;;23.80;8.52;;;614.80;1945.60;;;;;;5100519;28;20094;-77
2023/10/21 11:25:51;;;;;;;26.60;8.70;;;614.80;1945.60;;;;;;5084856;28;20382;-79
2023/10/21 11:28:17;;;;;;;28.50;8.40;;;614.80;1920.00;;;;;;5088158;28;20020;-78
2023/10/21 11:30:45;;;;;;;20.88;7.22;;;614.70;1920.00;;;;;;5079289;28;20091;-77
2023/10/21 11:33:11;;;;;;;26.25;9.63;;;614.70;1945.60;;;;;;5085248;28;20027;-76
2023/10/21 11:35:41;;;;;;;27.48;9.93;;;614.70;1971.20;;;;;;5069358;28;20033;-76
2023/10/21 11:38:07;;;;;;;26.63;10.10;;;614.60;1945.60;;;;;;5079221;28;20023;-77
2023/10/21 11:40:34;;;;;;;36.38;14.68;;;614.70;1945.60;;;;;;5069013;28;20032;-82
2023/10/21 11:43:04;;;;;;;27.70;12.80;;;614.70;1920.00;;;;;;5072210;28;20016;-79
2023/10/21 11:45:30;;;;;;;37.58;14.57;;;614.80;1945.60;;;;;;5092561;28;20040;-84
2023/10/21 11:47:58;;;;;;;26.85;9.38;;;614.80;1945.60;;;;;;5070483;28;20133;-81
2023/10/21 11:50:33;;;;;;;22.33;8.75;;;614.80;1920.00;;;;;;5096975;28;20077;-77
2023/10/21 11:53:06;;;;;;;26.65;8.05;;;614.80;1920.00;;;;;;5096172;28;20047;-79
2023/10/21 12:18:07;;;;;;;24.92;7.95;;;615.00;1920.00;;;;;;5094000;28;20034;-77
2023/10/21 12:20:30;;;;;;;19.98;6.68;;;615.00;1920.00;;;;;;5084877;28;20084;-78
2023/10/21 12:38:55;;;;;;;31.58;8.55;;;614.80;1971.20;;;;;;5107440;28;20046;-78
2023/10/21 12:41:27;;;;;;;22.23;7.55;;;614.80;1971.20;;;;;;5103786;28;20016;-80
2023/10/21 12:43:55;;;;;;;29.00;8.50;;;614.80;1996.80;;;;;;5089486;28;20029;-77